• Join FlightAware (Why Join?)
  • Login
  • US Flag 
05:55PM EDT


 

Airport Tracker/Info


-or-


 

Live Flight TrackerFlight Track Log ✈ UAL4295 ✈ 13-Apr-2013 ✈ KEWR - KMCI

Flight Track Log - Related Links

Times and Time Zones

All times are in EDT time to prevent confusion due to time zone crossing. See the UAL4295 flight status page for this flight to view local times or setup timezone preferences in your user account.

Time Position Orientation Groundspeed Altitude Reporting Facility
EDT Latitude Longitude Course Direction KTS MPH feet Rate Location/Type
07:21PM 40.6500 -74.1833 276° West 180 207 1,400  Level New York TRACON
07:22PM 40.6500 -74.2500 270° West 229 264 3,400 2,280 Climbing New York TRACON
07:23PM 40.6667 -74.3167 288° West 246 283 5,800 3,060 Climbing New York TRACON
07:24PM 40.6833 -74.4167 282° West 233 268 9,600 2,220 Climbing New York TRACON
07:25PM 40.7543 -74.7552 276° West  Level FlightAware Approximate
07:26PM 40.7636 -74.8769 276° West  Level FlightAware Approximate
07:26PM 40.7106 -74.5792 283° West 258 297 12,400  Level New York Center
07:27PM 40.7283 -74.6733 284° West 287 330 13,600 1,440 Climbing New York Center
07:28PM 40.7472 -74.7947 282° West 303 349 15,300 1,860 Climbing New York Center
07:29PM 40.7664 -74.9056 283° West 308 354 17,400 1,860 Climbing New York Center
07:30PM 40.7486 -74.9950 255° West 294 338 19,100 1,740 Climbing New York Center
07:31PM 40.7242 -75.0947 252° West 288 331 21,000 1,680 Climbing New York Center
07:32PM 40.6997 -75.1917 252° West 288 331 22,500 1,500 Climbing New York Center
07:33PM 40.6731 -75.2883 250° West 283 326 24,000 1,440 Climbing New York Center
07:34PM 40.6464 -75.3878 251° West 283 326 25,500 1,440 Climbing New York Center
07:35PM 40.6217 -75.4875 252° West 288 331 27,000 1,440 Climbing New York Center
07:36PM 40.5950 -75.5786 249° West 283 326 28,500 1,380 Climbing New York Center
07:37PM 40.5703 -75.6697 250° West 278 320 29,800 1,200 Climbing New York Center
07:38PM 40.5456 -75.7636 251° West 278 320 31,000 1,200 Climbing New York Center
07:39PM 40.5067 -75.8453 238° Southwest 273 314 32,200 1,380 Climbing New York Center
07:40PM 40.4569 -75.9372 235° Southwest 279 321 33,800 1,440 Climbing New York Center
07:41PM 40.4303 -76.0169 246° West 269 310 35,200 900 Climbing New York Center
07:42PM 40.4097 -76.1053 253° West 260 299 35,700 360 Climbing New York Center
07:43PM 40.3908 -76.1994 255° West 255 293 36,000 120 Climbing New York Center
07:44PM 40.3653 -76.3008 252° West 277 319 36,000  Level New York Center
07:45PM 40.3414 -76.4078 254° West 292 336 36,000  Level New York Center
07:46PM 40.3131 -76.5228 252° West 317 365 36,000  Level New York Center
07:47PM 40.2886 -76.6403 255° West 330 380 36,000  Level New York Center
07:48PM 40.2572 -76.7628 251° West 342 394 36,000  Level New York Center
07:49PM 40.2281 -76.8856 253° West 352 405 36,000  Level New York Center
07:50PM 40.1989 -77.0053 252° West 352 405 36,000  Level New York Center
07:51PM 40.1778 -77.1283 257° West 357 411 36,000  Level New York Center
07:52PM 40.1725 -77.2611 267° West 357 411 36,000  Level New York Center
07:54PM 40.1697 -77.5156 269° West 368 423 36,000  Level Cleveland Center
07:55PM 40.1669 -77.6461 268° West 368 423 36,000  Level Cleveland Center
07:56PM 40.1619 -77.7767 267° West 368 423 36,000  Level Cleveland Center
07:57PM 40.1611 -77.9181 270° West 363 418 36,000  Level Cleveland Center
07:58PM 40.1642 -78.0536 272° West 363 418 36,000  Level Cleveland Center
07:59PM 40.1692 -78.1867 273° West 363 418 36,000  Level Cleveland Center
08:00PM 40.1697 -78.3197 270° West 363 418 36,000  Level Cleveland Center
08:01PM 40.1725 -78.4556 272° West 363 418 36,000  Level Cleveland Center
08:02PM 40.1769 -78.5886 273° West 363 418 36,000  Level Cleveland Center
08:03PM 40.1792 -78.7217 271° West 363 418 36,000  Level Cleveland Center
08:04PM 40.1811 -78.8547 271° West 363 418 36,000  Level Cleveland Center
08:05PM 40.1833 -78.9906 271° West 363 418 36,000  Level Cleveland Center
08:06PM 40.1850 -79.1211 271° West 363 418 36,000  Level Cleveland Center
08:07PM 40.1867 -79.2569 271° West 363 418 36,000  Level Cleveland Center
08:08PM 40.1900 -79.3819 272° West 363 418 36,000  Level Cleveland Center
08:09PM 40.1914 -79.5178 271° West 368 423 36,000  Level Cleveland Center
08:10PM 40.1925 -79.6481 271° West 368 423 36,000  Level Cleveland Center
08:11PM 40.1936 -79.7867 271° West 368 423 36,000  Level Cleveland Center
08:12PM 40.1967 -79.9200 272° West 368 423 36,000  Level Cleveland Center
08:13PM 40.1911 -80.0694 267° West 368 423 36,000  Level Cleveland Center
08:14PM 40.1917 -80.2000 270° West 368 423 36,000  Level Cleveland Center
08:15PM 40.1942 -80.3358 271° West 368 423 36,000  Level Cleveland Center
08:16PM 40.1964 -80.4689 271° West 368 423 36,000  Level Cleveland Center
08:17PM 40.1986 -80.5967 271° West 362 417 36,000  Level Cleveland Center
08:18PM 40.1983 -80.7297 270° West 362 417 36,000  Level Cleveland Center
08:20PM 40.1936 -80.9694 269° West 354 407 36,000  Level Indianapolis Center
08:21PM 40.1925 -81.1017 269° West 358 412 36,000 -300 Level Indianapolis Center
08:22PM 40.1928 -81.2314 270° West 354 407 35,400 -840 Descending Indianapolis Center
08:23PM 40.1914 -81.3650 269° West 361 415 34,400 -720 Descending Indianapolis Center
08:24PM 40.1911 -81.4958 270° West 356 410 34,000 -240 Descending Indianapolis Center
08:25PM 40.1892 -81.6261 269° West 354 407 34,000  Level Indianapolis Center
08:26PM 40.1881 -81.7575 269° West 358 412 34,000  Level Indianapolis Center
08:27PM 40.1872 -81.8736 269° West 360 414 34,000  Level Indianapolis Center
08:28PM 40.1856 -82.0064 269° West 363 418 34,000  Level Indianapolis Center
08:29PM 40.1836 -82.1394 269° West 362 417 34,000 -60 Level Indianapolis Center
08:30PM 40.1828 -82.2719 270° West 363 418 33,900  Descending Indianapolis Center
08:31PM 40.1794 -82.4269 268° West 362 417 34,000  Climbing Indianapolis Center
08:32PM 40.1789 -82.5583 270° West 361 415 34,000  Level Indianapolis Center
08:33PM 40.1758 -82.6908 268° West 361 415 34,000  Level Indianapolis Center
08:34PM 40.1725 -82.8233 268° West 364 419 34,000  Level Indianapolis Center
08:35PM 40.1706 -82.9564 269° West 363 418 34,000  Level Indianapolis Center
08:36PM 40.1675 -83.0889 268° West 364 419 34,000  Level Indianapolis Center
08:37PM 40.1647 -83.2219 268° West 365 420 34,000  Level Indianapolis Center
08:38PM 40.1608 -83.3553 268° West 367 422 34,000  Level Indianapolis Center
08:39PM 40.1578 -83.4875 268° West 366 421 34,000  Level Indianapolis Center
08:40PM 40.1556 -83.6203 269° West 366 421 34,000  Level Indianapolis Center
08:41PM 40.1514 -83.7536 268° West 367 422 34,000  Level Indianapolis Center
08:42PM 40.1486 -83.8900 269° West 372 428 34,000  Level Indianapolis Center
08:43PM 40.1442 -84.0239 268° West 369 425 34,000  Level Indianapolis Center
08:44PM 40.1406 -84.1578 268° West 368 423 34,000  Level Indianapolis Center
08:45PM 40.1358 -84.2928 267° West 369 425 34,000  Level Indianapolis Center
08:46PM 40.1317 -84.4272 268° West 368 423 34,000  Level Indianapolis Center
08:47PM 40.1303 -84.5619 269° West 370 426 34,000  Level Indianapolis Center
08:48PM 40.1492 -84.6947 281° West 372 428 34,000  Level Indianapolis Center
08:49PM 40.1661 -84.8278 280° West 370 426 34,000  Level Indianapolis Center
08:50PM 40.1828 -84.9631 279° West 374 430 34,000  Level Indianapolis Center
08:51PM 40.2019 -85.0967 281° West 372 428 34,000  Level Indianapolis Center
08:52PM 40.2231 -85.2558 280° West 376 433 34,000  Level Indianapolis Center
08:53PM 40.2417 -85.3914 280° West 377 434 34,000  Level Indianapolis Center
08:54PM 40.2439 -85.4956 272° West 378 435 34,000  Level Chicago Center
08:55PM 40.2339 -85.6344 265° West 382 440 34,000  Level Chicago Center
08:56PM 40.2222 -85.7714 264° West 381 438 34,000  Level Chicago Center
08:57PM 40.2108 -85.9086 264° West 379 436 34,000  Level Chicago Center
08:58PM 40.1997 -86.0467 264° West 382 440 34,000  Level Chicago Center
08:59PM 40.1883 -86.1831 264° West 380 437 34,000  Level Chicago Center
09:00PM 40.1764 -86.3203 264° West 379 436 34,000  Level Chicago Center
09:01PM 40.1625 -86.4858 264° West 381 438 34,000  Level Chicago Center
09:02PM 40.1583 -86.6228 268° West 380 437 34,000  Level Chicago Center
09:03PM 40.1522 -86.7703 267° West 381 438 34,000  Level Chicago Center
09:04PM 40.1472 -86.9072 267° West 380 437 34,000  Level Chicago Center
09:05PM 40.1408 -87.0458 267° West 383 441 34,000  Level Chicago Center
09:06PM 40.1347 -87.1836 267° West 381 438 34,000  Level Chicago Center
09:07PM 40.1275 -87.3217 266° West 381 438 34,000  Level Chicago Center
09:08PM 40.1231 -87.4133 266° West 379 436 34,000  Level Indianapolis Center
09:08PM 40.1208 -87.4683 267° West 378 435 34,000  Level Indianapolis Center
09:09PM 40.1164 -87.5508 266° West 378 435 34,000  Level Indianapolis Center
09:09PM 40.1136 -87.6061 266° West 379 436 34,000  Level Indianapolis Center
09:10PM 40.1100 -87.6875 267° West 378 435 34,000  Level Indianapolis Center
09:10PM 40.1072 -87.7425 266° West 378 435 34,000  Level Indianapolis Center
09:11PM 40.1011 -87.8792 267° West 383 441 34,000  Level Chicago Center
09:12PM 40.0931 -88.0172 266° West 381 438 34,000  Level Chicago Center
09:13PM 40.0867 -88.1536 267° West 377 434 34,000  Level Chicago Center
09:15PM 40.0789 -88.2911 266° West 379 436 34,000  Level Chicago Center
09:16PM 40.0708 -88.4275 266° West 376 433 34,000  Level Chicago Center
09:16PM 40.0606 -88.5642 264° West 377 434 34,000  Level Kansas City Center
09:17PM 40.0542 -88.7017 267° West 380 437 34,000  Level Kansas City Center
09:18PM 40.0461 -88.8375 266° West 377 434 34,000  Level Kansas City Center
09:19PM 40.0381 -88.9661 265° West 363 418 34,000  Level Kansas City Center
09:20PM 40.0308 -89.0897 266° West 347 399 34,000  Level Kansas City Center
09:21PM 40.0228 -89.2094 265° West 335 386 34,000  Level Kansas City Center
09:23PM 40.0156 -89.3325 266° West 337 388 34,000  Level Kansas City Center
09:24PM 40.0050 -89.4922 265° West 364 419 34,000  Level Chicago Center
09:25PM 39.9967 -89.6303 266° West 379 436 34,000  Level Chicago Center
09:26PM 39.9872 -89.7444 264° West 385 443 34,000  Level Kansas City Center
09:27PM 39.9778 -89.8864 265° West 390 449 34,000  Level Kansas City Center
09:28PM 39.9672 -90.0278 264° West 391 450 34,000  Level Kansas City Center
09:29PM 39.9575 -90.1653 265° West 385 443 34,000  Level Kansas City Center
09:30PM 39.9486 -90.3017 265° West 380 437 34,000  Level Kansas City Center
09:31PM 39.9375 -90.4389 264° West 380 437 34,000  Level Kansas City Center
09:32PM 39.9281 -90.5778 265° West 382 440 34,000  Level Kansas City Center
09:33PM 39.9169 -90.7153 264° West 382 440 34,000  Level Kansas City Center
09:34PM 39.9058 -90.8558 264° West 386 444 34,000  Level Kansas City Center
09:35PM 39.8944 -91.0133 265° West 386 444 34,000  Level Kansas City Center
09:36PM 39.8833 -91.1525 264° West 388 447 34,000  Level Kansas City Center
09:37PM 39.8706 -91.2911 263° West 388 447 34,000  Level Kansas City Center
09:38PM 39.8597 -91.4306 264° West 390 449 34,000  Level Kansas City Center
09:39PM 39.8481 -91.5689 264° West 389 448 34,000  Level Kansas City Center
09:40PM 39.8358 -91.7103 264° West 391 450 34,000  Level Kansas City Center
09:41PM 39.8250 -91.8478 264° West 388 447 34,000  Level Kansas City Center
09:42PM 39.8133 -91.9875 264° West 389 448 34,000 -540 Level Kansas City Center
09:43PM 39.7975 -92.1597 263° West 397 457 32,900 -1,080 Descending Kansas City Center
09:44PM 39.7850 -92.3025 264° West 397 457 31,900 -1,020 Descending Kansas City Center
09:45PM 39.7714 -92.4494 263° West 402 463 30,900 -1,080 Descending Kansas City Center
09:46PM 39.7575 -92.5967 263° West 408 470 29,800 -1,320 Descending Kansas City Center
09:47PM 39.7439 -92.7397 263° West 406 467 28,300 -1,920 Descending Kansas City Center
09:48PM 39.7297 -92.8869 263° West 406 467 26,000 -2,280 Descending Kansas City Center
09:49PM 39.7153 -93.0336 263° West 409 471 23,700 -2,100 Descending Kansas City Center
09:50PM 39.7019 -93.1742 263° West 400 460 21,700 -1,980 Descending Kansas City Center
09:51PM 39.6883 -93.3083 263° West 384 442 19,700 -2,160 Descending Kansas City Center
09:52PM 39.6744 -93.4414 262° West 378 435 17,500 -2,040 Descending Kansas City Center
09:53PM 39.6614 -93.5667 262° West 360 414 15,700 -1,800 Descending Kansas City Center
09:54PM 39.6497 -93.6856 263° West 336 387 13,900 -1,680 Descending Kansas City Center
09:55PM 39.6278 -93.8017 256° West 320 368 12,400 -1,380 Descending Kansas City Center
09:56PM 39.5944 -93.9194 250° West 315 362 11,200 -900 Descending Kansas City Center
09:57PM 39.5633 -94.0306 250° West 341 392 10,700 -480 Descending Kansas City Center
09:58PM 39.5342 -94.1394 251° West 334 384 10,300 -660 Descending Kansas City Center
09:59PM 39.5058 -94.2461 251° West 277 319 9,400 -1,200 Descending Kansas City Center
10:00PM 39.4847 -94.3219 250° West 237 273 7,900 -1,260 Descending Kansas City Center
10:01PM 39.4617 -94.4075 251° West 226 260 6,900 -1,140 Descending Kansas City Center
10:02PM 39.4425 -94.4831 252° West 230 265 5,600 -1,440 Descending Kansas City Center
10:03PM 39.4269 -94.5631 256° West 238 274 4,100 -1,560 Descending Kansas City Center
10:04PM 39.4008 -94.6450 248° West 212 244 2,500 -1,080 Descending Kansas City Center
10:05PM 39.3669 -94.6842 222° Southwest 168 193 2,000 -540 Descending Kansas City Center